Time;durP1;ratioP1;P1;durP2;ratioP2;P2;SDS_P1;SDS_P2;PMS_P1;PMS_P2;Temp;Humidity;BMP_temperature;BMP_pressure;BME280_temperature;BME280_humidity;BME280_pressure;Samples;Min_cycle;Max_cycle;Signal;HPM_P1;HPM_P2
2021/06/19 00:01:19;;;;;;;9.90;4.95;;;;;;;20.19;100.00;93904.16;5136236;27;20226;-76
2021/06/19 00:03:45;;;;;;;16.08;5.07;;;;;;;19.94;100.00;93916.19;5135993;27;20939;-78
2021/06/19 00:06:12;;;;;;;17.25;4.15;;;;;;;19.72;100.00;93926.88;5136247;27;20208;-77
2021/06/19 00:08:38;;;;;;;14.77;4.35;;;;;;;19.56;100.00;93925.94;5136184;27;20564;-77
2021/06/19 00:11:05;;;;;;;12.95;4.07;;;;;;;19.50;100.00;93934.91;5136185;27;20204;-76
2021/06/19 00:13:31;;;;;;;15.52;4.45;;;;;;;19.43;100.00;93939.59;5135681;27;20665;-76
2021/06/19 00:15:58;;;;;;;16.23;4.05;;;;;;;19.36;100.00;93925.78;5136255;27;20192;-76
2021/06/19 00:18:26;;;;;;;9.70;4.10;;;;;;;19.34;100.00;93923.38;5136181;27;20284;-76
2021/06/19 00:20:52;;;;;;;12.27;3.75;;;;;;;19.33;100.00;93918.34;5128447;27;20204;-76
2021/06/19 00:23:19;;;;;;;9.43;3.20;;;;;;;19.27;100.00;93908.75;5136000;27;20200;-77
2021/06/19 00:25:46;;;;;;;15.43;4.13;;;;;;;19.25;100.00;93910.84;5135665;27;20255;-76
2021/06/19 00:28:12;;;;;;;12.68;3.55;;;;;;;19.19;100.00;93908.16;5135636;27;20224;-76
2021/06/19 00:30:39;;;;;;;10.77;4.07;;;;;;;19.21;100.00;93911.34;5136021;27;20223;-76
2021/06/19 00:33:05;;;;;;;12.48;3.65;;;;;;;19.12;100.00;93915.50;5135704;27;20597;-76
2021/06/19 00:35:33;;;;;;;9.95;3.55;;;;;;;19.01;100.00;93911.94;5135800;27;20685;-76
2021/06/19 00:38:00;;;;;;;13.93;4.20;;;;;;;18.90;100.00;93906.81;5135766;27;20196;-76
2021/06/19 00:40:26;;;;;;;12.02;3.40;;;;;;;18.80;100.00;93918.84;5135510;27;20200;-76
2021/06/19 00:42:55;;;;;;;17.65;4.15;;;;;;;18.76;100.00;93915.09;5135502;27;20288;-75
2021/06/19 00:45:21;;;;;;;15.68;4.18;;;;;;;18.76;100.00;93922.25;5135210;27;20436;-77
2021/06/19 00:47:48;;;;;;;13.00;3.50;;;;;;;18.70;100.00;93918.72;5135415;27;20331;-77
2021/06/19 00:50:15;;;;;;;11.27;3.28;;;;;;;18.67;100.00;93924.53;5135355;27;20686;-77
2021/06/19 00:52:43;;;;;;;27.92;4.45;;;;;;;18.68;100.00;93911.06;5135315;27;20207;-77
2021/06/19 00:55:10;;;;;;;16.45;4.20;;;;;;;18.73;100.00;93910.28;5135360;27;20200;-76
2021/06/19 00:57:37;;;;;;;10.07;3.90;;;;;;;18.70;100.00;93913.44;5135412;27;20257;-75
2021/06/19 01:00:05;;;;;;;12.60;3.58;;;;;;;18.72;100.00;93906.06;5135405;27;20201;-77
2021/06/19 01:02:31;;;;;;;15.68;3.30;;;;;;;18.72;100.00;93906.06;5135242;27;20215;-78
2021/06/19 01:04:58;;;;;;;16.83;3.70;;;;;;;18.65;100.00;93895.69;5135231;27;20205;-78
2021/06/19 01:07:24;;;;;;;14.20;3.80;;;;;;;18.63;100.00;93895.09;5134968;27;20236;-78
2021/06/19 01:09:52;;;;;;;12.68;3.40;;;;;;;18.62;100.00;93898.03;5135085;27;20212;-76
2021/06/19 01:12:23;;;;;;;12.90;3.60;;;;;;;18.62;100.00;93898.81;5134885;27;20555;-76
2021/06/19 01:14:50;;;;;;;18.45;3.65;;;;;;;18.54;100.00;93903.75;5135125;27;20207;-76
2021/06/19 01:17:17;;;;;;;16.73;3.58;;;;;;;18.43;100.00;93898.31;5134885;27;20197;-76
2021/06/19 01:19:44;;;;;;;8.45;3.00;;;;;;;18.35;100.00;93901.38;5134806;27;20347;-77
2021/06/19 01:22:11;;;;;;;11.50;3.85;;;;;;;18.24;100.00;93897.81;5134825;27;20197;-78
2021/06/19 01:24:39;;;;;;;7.75;3.38;;;;;;;18.15;100.00;93890.56;5133991;27;20200;-77
2021/06/19 01:27:06;;;;;;;11.23;3.45;;;;;;;18.04;100.00;93887.78;5134003;27;20445;-78
2021/06/19 01:29:32;;;;;;;12.40;4.00;;;;;;;17.91;100.00;93888.13;5134736;27;20200;-78
2021/06/19 01:31:59;;;;;;;11.07;3.33;;;;;;;17.81;100.00;93880.03;5134691;27;20203;-76
2021/06/19 01:34:25;;;;;;;12.00;3.42;;;;;;;17.71;100.00;93873.56;5134354;27;20655;-76
2021/06/19 01:36:51;;;;;;;8.38;3.30;;;;;;;17.63;100.00;93865.25;5134536;27;20207;-76
2021/06/19 01:39:18;;;;;;;14.45;3.95;;;;;;;17.55;100.00;93869.91;5134348;27;20207;-76
2021/06/19 01:41:46;;;;;;;12.90;3.55;;;;;;;17.48;100.00;93871.09;5134571;27;20616;-75
2021/06/19 01:44:12;;;;;;;11.23;3.78;;;;;;;17.35;100.00;93867.75;5134285;27;20201;-78
2021/06/19 01:46:41;;;;;;;12.60;3.92;;;;;;;17.24;100.00;93868.63;5134230;27;20233;-77
2021/06/19 01:49:08;;;;;;;16.00;3.90;;;;;;;17.16;100.00;93863.75;5134225;27;20208;-77
2021/06/19 01:51:35;;;;;;;18.30;3.83;;;;;;;17.01;100.00;93865.09;5134056;27;20567;-77
2021/06/19 01:54:01;;;;;;;11.05;3.40;;;;;;;16.89;100.00;93861.72;5134261;27;20201;-77
2021/06/19 01:56:28;;;;;;;13.50;4.57;;;;;;;16.85;100.00;93857.16;5134326;27;20196;-76
2021/06/19 01:58:56;;;;;;;11.18;4.13;;;;;;;16.91;100.00;93858.84;5134092;27;20682;-75
2021/06/19 02:01:23;;;;;;;10.13;3.78;;;;;;;16.86;100.00;93864.81;5134074;27;20207;-76
2021/06/19 02:03:50;;;;;;;13.77;4.25;;;;;;;16.88;100.00;93860.09;5134065;27;20197;-76
2021/06/19 02:06:16;;;;;;;10.05;3.85;;;;;;;16.82;100.00;93855.78;5133597;27;20711;-75
2021/06/19 02:08:49;;;;;;;15.07;4.18;;;;;;;16.79;100.00;93853.59;5154212;27;20799;-76
2021/06/19 02:11:15;;;;;;;13.07;4.28;;;;;;;16.79;100.00;93859.66;5154887;27;20196;-77
2021/06/19 02:13:41;;;;;;;10.75;3.88;;;;;;;16.81;100.00;93854.16;5154770;27;20199;-76
2021/06/19 02:16:09;;;;;;;12.20;4.00;;;;;;;16.73;100.00;93851.91;5133385;27;20674;-75
2021/06/19 02:18:36;;;;;;;13.27;4.55;;;;;;;16.67;100.00;93861.56;5133778;27;20197;-76
2021/06/19 02:21:02;;;;;;;12.02;4.28;;;;;;;16.56;100.00;93857.94;5133946;27;20201;-76
2021/06/19 02:23:29;;;;;;;10.75;4.07;;;;;;;16.44;100.00;93857.97;5133801;27;20540;-76
2021/06/19 02:25:55;;;;;;;13.43;4.00;;;;;;;16.36;100.00;93868.09;5133746;28;20224;-75
2021/06/19 02:28:24;;;;;;;15.13;4.35;;;;;;;16.33;100.00;93874.63;5133805;28;20235;-76
2021/06/19 02:30:55;;;;;;;15.35;3.78;;;;;;;16.27;100.00;93872.94;5133835;28;20197;-76
2021/06/19 02:33:23;;;;;;;15.52;3.80;;;;;;;16.28;100.00;93877.94;5133687;28;20200;-76
2021/06/19 02:35:51;;;;;;;18.42;4.63;;;;;;;16.37;100.00;93880.22;5134022;27;20204;-76
2021/06/19 02:38:17;;;;;;;14.60;3.88;;;;;;;16.35;100.00;93874.38;5137402;27;20200;-76
2021/06/19 02:40:45;;;;;;;12.43;4.82;;;;;;;16.33;100.00;93884.38;5137996;27;20204;-76
2021/06/19 02:43:13;;;;;;;16.90;4.82;;;;;;;16.28;100.00;93880.56;5137953;27;20201;-76
2021/06/19 02:45:39;;;;;;;12.68;4.75;;;;;;;16.31;100.00;93881.97;5137813;27;20271;-76
2021/06/19 02:48:07;;;;;;;12.82;4.45;;;;;;;16.35;100.00;93883.06;5137497;27;20691;-75
2021/06/19 02:50:37;;;;;;;18.17;4.03;;;;;;;16.34;100.00;93880.72;5137907;27;20193;-75
2021/06/19 02:53:05;;;;;;;14.68;4.68;;;;;;;16.35;100.00;93882.28;5137640;27;20689;-75
2021/06/19 02:55:33;;;;;;;15.05;4.70;;;;;;;16.42;100.00;93875.03;5137696;27;20203;-76
2021/06/19 02:58:00;;;;;;;15.68;4.80;;;;;;;16.45;100.00;93867.50;5137664;27;20201;-76
2021/06/19 03:00:27;;;;;;;15.70;4.55;;;;;;;16.52;100.00;93872.63;5137455;27;20207;-76
2021/06/19 03:02:54;;;;;;;14.52;4.53;;;;;;;16.60;100.00;93874.06;5137707;27;20279;-76
2021/06/19 03:05:22;;;;;;;14.00;4.50;;;;;;;16.65;100.00;93880.25;5137592;27;20204;-76
2021/06/19 03:07:50;;;;;;;11.93;4.47;;;;;;;16.65;100.00;93872.34;5137482;27;20229;-76
2021/06/19 03:10:19;;;;;;;14.07;4.55;;;;;;;16.64;100.00;93877.84;5137401;27;20200;-76
2021/06/19 03:12:46;;;;;;;15.75;4.47;;;;;;;16.66;100.00;93865.22;5137061;27;20702;-76
2021/06/19 03:15:13;;;;;;;23.13;5.18;;;;;;;16.64;100.00;93860.19;5137397;27;20199;-75
2021/06/19 03:17:40;;;;;;;15.77;4.07;;;;;;;16.59;100.00;93868.00;5137384;27;20208;-76
2021/06/19 03:20:09;;;;;;;14.52;4.45;;;;;;;16.52;100.00;93877.91;5137695;27;20208;-79
2021/06/19 03:22:46;;;;;;;12.90;4.05;;;;;;;16.46;100.00;93892.00;5137314;27;20200;-76
2021/06/19 03:25:16;;;;;;;16.67;4.22;;;;;;;16.42;100.00;93885.59;5136929;27;20224;-77
2021/06/19 03:27:43;;;;;;;16.20;4.35;;;;;;;16.43;100.00;93887.97;5137277;27;20220;-78
2021/06/19 03:30:10;;;;;;;15.85;5.03;;;;;;;16.50;100.00;93898.41;5137072;27;20295;-77
2021/06/19 03:32:37;;;;;;;13.23;4.82;;;;;;;16.52;100.00;93898.16;5136568;27;20429;-75
2021/06/19 03:35:05;;;;;;;13.10;4.65;;;;;;;16.52;100.00;93901.63;5136905;27;20224;-77
2021/06/19 03:37:31;;;;;;;12.32;4.72;;;;;;;16.49;100.00;93894.16;5136912;27;20207;-76
2021/06/19 03:39:58;;;;;;;10.55;4.20;;;;;;;16.43;100.00;93903.78;5136736;27;20196;-76
2021/06/19 03:42:26;;;;;;;19.35;5.20;;;;;;;16.41;100.00;93911.16;5136831;27;20196;-76
2021/06/19 03:44:52;;;;;;;17.25;5.13;;;;;;;16.39;100.00;93904.53;5136816;27;20197;-76
2021/06/19 03:47:19;;;;;;;16.90;4.80;;;;;;;16.40;100.00;93901.66;5136111;27;20199;-74
2021/06/19 03:49:45;;;;;;;16.17;4.78;;;;;;;16.39;100.00;93904.53;5136564;27;20196;-77
2021/06/19 03:52:12;;;;;;;13.25;4.60;;;;;;;16.41;100.00;93907.72;5136587;27;20197;-77
2021/06/19 03:54:38;;;;;;;15.93;5.00;;;;;;;16.43;100.00;93903.00;5136411;27;20197;-78
2021/06/19 03:57:05;;;;;;;13.48;4.82;;;;;;;16.42;100.00;93904.03;5136703;27;20667;-76
2021/06/19 03:59:33;;;;;;;11.02;4.75;;;;;;;16.38;100.00;93911.59;5136605;27;20204;-76
2021/06/19 04:02:00;;;;;;;16.42;4.22;;;;;;;16.37;100.00;93914.47;5136488;27;20205;-75
2021/06/19 04:04:26;;;;;;;14.68;4.78;;;;;;;16.40;100.00;93917.47;5136268;27;20208;-76
2021/06/19 04:06:53;;;;;;;15.82;4.55;;;;;;;16.41;100.00;93918.25;5124673;27;20644;-75
2021/06/19 04:09:19;;;;;;;14.32;4.40;;;;;;;16.44;100.00;93910.69;5115882;28;20233;-78
2021/06/19 04:11:46;;;;;;;14.52;4.90;;;;;;;16.49;100.00;93915.25;5115628;28;20670;-77
2021/06/19 04:14:12;;;;;;;13.45;4.63;;;;;;;16.53;100.00;93907.69;5115596;28;20197;-77
2021/06/19 04:16:40;;;;;;;17.50;5.90;;;;;;;16.57;100.00;93907.00;5136012;27;20196;-77
2021/06/19 04:19:07;;;;;;;9.95;4.10;;;;;;;16.59;100.00;93898.84;5135987;27;20647;-78
2021/06/19 04:21:33;;;;;;;18.95;5.88;;;;;;;16.62;100.00;93901.00;5102751;27;20202;-77
2021/06/19 04:23:59;;;;;;;16.92;5.20;;;;;;;16.65;100.00;93901.34;5095199;28;20202;-76
2021/06/19 04:26:26;;;;;;;13.95;4.50;;;;;;;16.68;100.00;93904.53;5108100;28;20237;-76
2021/06/19 04:28:52;;;;;;;11.73;4.60;;;;;;;16.74;100.00;93900.97;5115164;28;20576;-76
2021/06/19 04:31:19;;;;;;;16.85;5.32;;;;;;;16.78;100.00;93899.44;5115335;28;20201;-76
2021/06/19 04:33:47;;;;;;;18.52;5.22;;;;;;;16.87;100.00;93906.00;5115295;28;20224;-75
2021/06/19 04:36:13;;;;;;;21.98;5.30;;;;;;;17.02;100.00;93903.63;5115094;28;20560;-76
2021/06/19 04:38:40;;;;;;;16.48;4.78;;;;;;;17.10;100.00;93912.19;5115308;28;20201;-76
2021/06/19 04:41:09;;;;;;;9.10;4.03;;;;;;;17.19;100.00;93913.41;5115186;28;20202;-75
2021/06/19 04:43:51;;;;;;;16.80;4.53;;;;;;;17.26;100.00;93913.25;5115164;28;20198;-77
2021/06/19 04:46:17;;;;;;;14.38;4.53;;;;;;;17.43;100.00;93926.47;5115007;28;20205;-78
2021/06/19 04:48:44;;;;;;;15.35;4.88;;;;;;;17.74;100.00;93933.81;5114789;28;20225;-76
2021/06/19 04:51:13;;;;;;;14.88;4.95;;;;;;;18.08;100.00;93944.38;5115122;28;20197;-77
2021/06/19 04:53:39;;;;;;;15.65;4.93;;;;;;;18.40;100.00;93938.50;5114960;28;20197;-76
2021/06/19 04:56:07;;;;;;;11.48;4.57;;;;;;;18.65;100.00;93935.34;5114734;28;20205;-76
2021/06/19 04:58:35;;;;;;;14.23;4.35;;;;;;;19.09;100.00;93939.03;5114616;28;20205;-76
2021/06/19 05:01:01;;;;;;;14.68;3.92;;;;;;;19.25;100.00;93942.63;5113886;28;20200;-76
2021/06/19 05:03:28;;;;;;;10.65;3.95;;;;;;;19.52;100.00;93935.47;5114612;28;20588;-76
2021/06/19 05:05:54;;;;;;;15.38;4.65;;;;;;;19.54;100.00;93936.00;5117574;27;20659;-77
2021/06/19 05:08:22;;;;;;;12.18;3.85;;;;;;;19.39;100.00;93935.88;5135129;27;20224;-76
2021/06/19 05:10:49;;;;;;;15.38;4.38;;;;;;;19.25;100.00;93932.03;5135103;27;20220;-76
2021/06/19 05:13:15;;;;;;;15.18;4.93;;;;;;;19.34;100.00;93936.63;5135117;27;20287;-78
2021/06/19 05:15:42;;;;;;;13.45;5.03;;;;;;;19.64;100.00;93923.91;5134928;27;20201;-78
2021/06/19 05:18:08;;;;;;;13.70;4.15;;;;;;;19.72;100.00;93931.38;5135076;27;20201;-77
2021/06/19 05:20:35;;;;;;;15.85;5.03;;;;;;;20.08;100.00;93934.31;5135072;27;20223;-77
2021/06/19 05:23:08;;;;;;;14.30;3.50;;;;;;;20.48;100.00;93943.53;5134786;27;20196;-77
2021/06/19 05:25:36;;;;;;;18.55;3.90;;;;;;;20.83;100.00;93940.28;5134804;27;20228;-77
2021/06/19 05:28:03;;;;;;;14.95;4.03;;;;;;;20.81;100.00;93936.28;5134680;27;20256;-77
2021/06/19 05:30:30;;;;;;;16.85;4.85;;;;;;;20.70;100.00;93940.78;5134531;27;20205;-77
2021/06/19 05:32:57;;;;;;;16.88;4.63;;;;;;;20.99;100.00;93938.47;5134713;27;20563;-76
2021/06/19 05:35:24;;;;;;;13.55;3.53;;;;;;;21.47;100.00;93937.50;5134562;27;20204;-77
2021/06/19 05:37:51;;;;;;;15.60;4.72;;;;;;;21.71;100.00;93943.13;5134651;27;20613;-77
2021/06/19 05:40:18;;;;;;;14.73;3.72;;;;;;;22.04;96.75;93939.13;5134498;27;20201;-77
2021/06/19 05:42:46;;;;;;;16.73;4.05;;;;;;;22.76;94.39;93933.63;5134375;27;20193;-77
2021/06/19 05:45:13;;;;;;;17.00;4.50;;;;;;;23.37;90.01;93931.78;5134324;27;20604;-77
2021/06/19 05:47:39;;;;;;;14.50;3.88;;;;;;;23.34;88.55;93934.97;5134242;27;20204;-77
2021/06/19 05:50:07;;;;;;;12.48;4.25;;;;;;;23.11;90.39;93941.78;5134163;27;20224;-77
2021/06/19 05:52:34;;;;;;;11.90;4.20;;;;;;;22.74;92.54;93943.78;5134143;27;20537;-77
2021/06/19 05:55:00;;;;;;;18.05;5.10;;;;;;;22.64;95.33;93943.81;5134278;27;20228;-77
2021/06/19 05:57:27;;;;;;;14.35;4.13;;;;;;;22.47;96.54;93944.91;5134081;27;20201;-76
2021/06/19 05:59:55;;;;;;;18.55;4.95;;;;;;;22.24;97.99;93937.50;5134127;27;20208;-77
2021/06/19 06:02:21;;;;;;;14.35;4.28;;;;;;;22.36;98.10;93932.69;5134256;27;20232;-77
2021/06/19 06:04:48;;;;;;;16.27;3.88;;;;;;;22.20;99.47;93937.25;5134012;27;20197;-77
2021/06/19 06:07:14;;;;;;;15.93;4.63;;;;;;;22.16;98.56;93928.97;5119536;27;20675;-77
2021/06/19 06:09:40;;;;;;;9.55;3.72;;;;;;;22.45;97.21;93931.09;5113467;28;20258;-77
2021/06/19 06:12:09;;;;;;;16.65;4.28;;;;;;;22.67;95.00;93932.63;5112588;28;20220;-77
2021/06/19 06:14:36;;;;;;;15.02;4.32;;;;;;;23.10;91.10;93930.34;5113613;28;20208;-77
2021/06/19 06:17:04;;;;;;;18.15;4.50;;;;;;;23.23;89.36;93935.06;5113576;28;20279;-77
2021/06/19 06:19:31;;;;;;;12.02;3.70;;;;;;;23.34;88.99;93935.78;5112843;28;20462;-77
2021/06/19 06:21:57;;;;;;;16.75;3.60;;;;;;;23.22;88.74;93938.78;5113335;28;20197;-77
2021/06/19 06:24:24;;;;;;;11.07;4.18;;;;;;;23.10;88.52;93946.31;5113330;28;20255;-77
2021/06/19 06:26:50;;;;;;;12.13;4.47;;;;;;;23.15;90.09;93945.47;5113047;28;20232;-77
2021/06/19 06:29:17;;;;;;;12.38;4.03;;;;;;;23.24;89.57;93946.50;5113338;28;20239;-76
2021/06/19 06:31:43;;;;;;;19.15;3.58;;;;;;;23.46;88.95;93956.75;5113461;28;20212;-76
2021/06/19 06:34:11;;;;;;;19.00;4.90;;;;;;;23.36;91.13;93954.16;5113243;28;20216;-76
2021/06/19 06:36:38;;;;;;;14.23;4.30;;;;;;;23.36;90.83;93964.81;5113283;28;20204;-76
2021/06/19 06:39:05;;;;;;;13.70;4.03;;;;;;;23.43;88.10;93954.63;5113073;28;20213;-76
2021/06/19 06:41:32;;;;;;;17.25;4.38;;;;;;;23.24;89.63;93965.94;5113333;28;20201;-77
2021/06/19 06:43:58;;;;;;;9.90;3.92;;;;;;;23.32;90.63;93958.44;5113327;28;20205;-76
2021/06/19 06:46:25;;;;;;;14.73;4.10;;;;;;;23.29;90.83;93951.78;5113324;28;20199;-76
2021/06/19 06:48:51;;;;;;;15.68;4.10;;;;;;;23.06;93.08;93956.69;5113092;28;20564;-76
2021/06/19 06:51:19;;;;;;;15.07;4.10;;;;;;;23.09;92.19;93950.03;5113014;28;20666;-76
2021/06/19 06:53:45;;;;;;;11.77;4.43;;;;;;;23.11;92.23;93947.88;5112917;28;20201;-77
2021/06/19 06:56:12;;;;;;;13.68;4.78;;;;;;;23.42;91.36;93943.19;5105349;28;20202;-77
2021/06/19 06:58:38;;;;;;;17.17;4.38;;;;;;;23.91;90.61;93954.06;5112718;28;20208;-77
2021/06/19 07:01:07;;;;;;;11.60;3.90;;;;;;;24.48;86.10;93946.31;5113084;28;20197;-77
2021/06/19 07:03:33;;;;;;;10.65;3.65;;;;;;;24.81;84.04;93939.28;5113027;28;20197;-78
2021/06/19 07:06:00;;;;;;;13.43;3.70;;;;;;;25.12;83.85;93939.72;5112853;28;20194;-76
2021/06/19 07:08:28;;;;;;;20.85;4.45;;;;;;;25.63;79.63;93932.06;5113050;28;20204;-77
2021/06/19 07:10:54;;;;;;;12.98;4.25;;;;;;;25.81;77.28;93927.78;5112842;28;20201;-77
2021/06/19 07:13:21;;;;;;;17.95;3.70;;;;;;;26.03;75.76;93919.19;5113045;28;20204;-77
2021/06/19 07:15:47;;;;;;;13.43;3.90;;;;;;;26.28;73.57;93909.91;5112919;28;20205;-78
2021/06/19 07:18:14;;;;;;;13.32;4.22;;;;;;;26.33;70.58;93909.81;5112744;28;20552;-78
2021/06/19 07:20:40;;;;;;;13.18;4.28;;;;;;;26.43;68.81;93916.03;5112701;28;20197;-78
2021/06/19 07:23:07;;;;;;;14.25;3.97;;;;;;;26.53;66.48;93913.97;5114337;28;20201;-78
2021/06/19 07:25:34;;;;;;;18.80;4.18;;;;;;;26.21;64.87;93907.63;5120324;27;20240;-77
2021/06/19 07:28:01;;;;;;;16.42;3.72;;;;;;;26.16;65.18;93901.53;5137063;27;20200;-78
2021/06/19 07:30:28;;;;;;;18.70;4.10;;;;;;;26.40;68.15;93902.16;5136941;27;20251;-78
2021/06/19 07:32:55;;;;;;;10.73;4.28;;;;;;;26.46;64.91;93894.81;5136964;27;20197;-79
2021/06/19 07:35:22;;;;;;;17.30;4.00;;;;;;;26.38;64.59;93892.84;5136873;27;20201;-78
2021/06/19 07:37:48;;;;;;;16.88;3.85;;;;;;;26.28;65.01;93887.66;5137063;27;20192;-77
2021/06/19 07:40:16;;;;;;;14.40;3.90;;;;;;;26.39;65.77;93881.03;5137177;27;20212;-79
2021/06/19 07:42:44;;;;;;;18.35;4.97;;;;;;;26.74;65.66;93876.09;5136836;27;20227;-78
2021/06/19 07:45:11;;;;;;;14.10;3.90;;;;;;;26.70;64.57;93869.78;5136699;27;20197;-76
2021/06/19 07:47:38;;;;;;;13.85;4.10;;;;;;;26.46;66.22;93870.72;5136620;27;20204;-79
2021/06/19 07:50:06;;;;;;;12.75;4.10;;;;;;;26.76;66.53;93869.38;5136518;27;20301;-80
2021/06/19 07:52:33;;;;;;;20.73;4.30;;;;;;;26.74;64.00;93868.84;5136765;27;20196;-79
2021/06/19 07:55:00;;;;;;;28.05;4.63;;;;;;;26.73;64.59;93871.81;5136625;27;20197;-79
2021/06/19 07:57:26;;;;;;;16.80;3.80;;;;;;;26.64;62.67;93879.00;5136595;27;20197;-78
2021/06/19 07:59:54;;;;;;;19.85;3.92;;;;;;;26.42;62.13;93882.34;5136446;27;20197;-80
2021/06/19 08:02:21;;;;;;;17.20;4.43;;;;;;;26.78;60.13;93882.47;5136254;27;20204;-80
2021/06/19 08:04:47;;;;;;;14.25;3.75;;;;;;;26.99;61.36;93882.81;5136595;27;20200;-79
2021/06/19 08:07:13;;;;;;;19.48;5.13;;;;;;;27.12;59.67;93879.31;5130623;27;20652;-78
2021/06/19 08:09:40;;;;;;;20.25;4.70;;;;;;;27.15;62.46;93883.28;5135843;27;20811;-78
2021/06/19 08:12:08;;;;;;;12.88;3.88;;;;;;;27.35;61.17;93882.06;5136168;27;20200;-80
2021/06/19 08:14:34;;;;;;;23.88;4.80;;;;;;;27.33;63.97;93886.94;5136142;27;20196;-80
2021/06/19 08:17:08;;;;;;;21.77;3.85;;;;;;;27.61;63.32;93878.75;5135994;27;20200;-79
2021/06/19 08:19:34;;;;;;;17.38;4.45;;;;;;;27.98;59.43;93882.19;5135727;27;20224;-79
2021/06/19 08:22:01;;;;;;;22.20;4.80;;;;;;;28.08;59.80;93881.13;5135109;27;20788;-78
2021/06/19 08:24:28;;;;;;;19.83;4.57;;;;;;;28.05;64.75;93869.91;5135830;27;20223;-76
2021/06/19 08:26:54;;;;;;;10.02;3.95;;;;;;;28.04;58.84;93871.00;5135747;27;20229;-79
2021/06/19 08:29:21;;;;;;;19.13;4.25;;;;;;;27.86;59.43;93871.97;5135885;27;20221;-80
2021/06/19 08:31:47;;;;;;;31.05;4.85;;;;;;;28.00;59.08;93874.63;5135626;27;20541;-77
2021/06/19 08:34:15;;;;;;;15.45;4.45;;;;;;;28.11;60.60;93875.16;5135887;27;20192;-80
2021/06/19 08:36:41;;;;;;;17.13;4.47;;;;;;;28.12;61.14;93874.06;5135813;27;20204;-77
2021/06/19 08:39:08;;;;;;;11.68;3.85;;;;;;;28.28;59.92;93869.88;5135669;27;20205;-78
2021/06/19 08:41:34;;;;;;;17.15;4.18;;;;;;;28.38;55.14;93863.44;5135650;27;20200;-80
2021/06/19 08:44:02;;;;;;;21.45;4.63;;;;;;;28.29;57.49;93860.69;5135466;27;20283;-79
2021/06/19 08:46:29;;;;;;;22.02;4.30;;;;;;;28.36;60.34;93871.81;5135648;27;20200;-79
2021/06/19 08:48:56;;;;;;;18.25;4.35;;;;;;;28.62;59.76;93867.66;5135466;27;20192;-79
2021/06/19 08:51:25;;;;;;;15.25;4.50;;;;;;;28.66;55.53;93868.59;5134812;27;20434;-80
2021/06/19 08:53:52;;;;;;;12.32;4.28;;;;;;;28.22;57.63;93863.03;5135300;27;20616;-79
2021/06/19 08:56:21;;;;;;;15.85;4.53;;;;;;;28.29;55.39;93860.69;5135268;27;20196;-78
2021/06/19 08:58:47;;;;;;;19.02;4.53;;;;;;;28.62;56.48;93857.69;5135244;27;20257;-79
2021/06/19 09:01:14;;;;;;;23.42;4.68;;;;;;;28.58;59.02;93854.84;5135159;27;20205;-79
2021/06/19 09:03:40;;;;;;;17.98;4.90;;;;;;;28.49;56.13;93853.19;5135289;27;20208;-80
2021/06/19 09:06:24;;;;;;;25.58;4.70;;;;;;;28.58;56.56;93854.06;5134927;27;20196;-80
2021/06/19 09:09:09;;;;;;;17.25;3.97;;;;;;;28.94;58.17;93845.75;5135129;27;20204;-83
2021/06/19 09:11:38;;;;;;;13.95;4.18;;;;;;;29.41;55.73;93850.53;5135198;27;20200;-80
2021/06/19 09:14:07;;;;;;;29.13;4.63;;;;;;;29.11;52.88;93847.66;5135086;27;20197;-78
2021/06/19 09:16:34;;;;;;;17.75;4.40;;;;;;;28.59;53.57;93842.19;5135011;27;20230;-79
2021/06/19 09:19:01;;;;;;;14.65;3.63;;;;;;;28.85;52.85;93838.78;5155545;27;20200;-78
2021/06/19 09:21:31;;;;;;;19.42;4.72;;;;;;;29.00;55.98;93840.22;5155433;27;20694;-78
2021/06/19 09:23:58;;;;;;;22.38;4.30;;;;;;;28.91;54.52;93834.81;5155448;27;20196;-77
2021/06/19 09:26:27;;;;;;;15.43;4.28;;;;;;;28.88;54.01;93835.44;5155340;27;20712;-79
2021/06/19 09:29:09;;;;;;;10.23;3.58;;;;;;;28.68;52.46;93829.56;5155537;27;20195;-78
2021/06/19 09:31:46;;;;;;;22.55;4.43;;;;;;;28.65;55.64;93824.81;5155358;27;20200;-78
2021/06/19 09:34:15;;;;;;;20.13;4.40;;;;;;;28.68;53.65;93826.06;5155290;27;20196;-77
2021/06/19 09:36:48;;;;;;;19.83;5.03;;;;;;;28.68;54.30;93818.00;5155184;27;20200;-76
2021/06/19 09:39:17;;;;;;;19.58;4.72;;;;;;;28.79;58.00;93824.69;5155166;27;20202;-78
2021/06/19 09:41:48;;;;;;;16.65;4.30;;;;;;;28.93;59.04;93819.19;5155205;27;20200;-76
2021/06/19 09:44:15;;;;;;;16.30;5.10;;;;;;;29.03;61.41;93818.88;5154426;27;20435;-77
2021/06/19 09:46:42;;;;;;;14.63;4.60;;;;;;;29.42;61.61;93835.97;5154530;27;20291;-78
2021/06/19 09:49:14;;;;;;;14.07;4.03;;;;;;;28.52;55.37;93825.72;5155137;27;20206;-77
2021/06/19 09:51:48;;;;;;;21.05;4.80;;;;;;;28.76;56.43;93826.09;5155246;27;20224;-78
2021/06/19 09:54:15;;;;;;;15.93;4.43;;;;;;;28.95;57.29;93822.34;5155047;27;20214;-80
2021/06/19 09:56:50;;;;;;;22.40;4.53;;;;;;;29.13;57.66;93818.53;5154961;27;20196;-78
2021/06/19 09:59:21;;;;;;;21.05;4.65;;;;;;;29.12;55.15;93810.78;5154855;27;20234;-78
2021/06/19 10:01:48;;;;;;;21.45;4.63;;;;;;;29.01;56.05;93807.63;5155012;27;20202;-78
2021/06/19 10:04:16;;;;;;;16.27;4.20;;;;;;;29.70;57.32;93809.47;5154950;27;20202;-78
2021/06/19 10:06:43;;;;;;;24.75;4.60;;;;;;;29.74;53.18;93795.38;5154775;27;20193;-77
2021/06/19 10:09:11;;;;;;;17.45;4.40;;;;;;;30.07;54.74;93787.53;5154710;27;20211;-77
2021/06/19 10:11:39;;;;;;;15.50;4.40;;;;;;;30.12;54.10;93791.97;5154185;27;20197;-76
2021/06/19 10:14:10;;;;;;;19.88;4.55;;;;;;;29.73;54.33;93788.41;5154831;27;20199;-76
2021/06/19 10:16:40;;;;;;;12.88;4.65;;;;;;;29.34;55.07;93788.34;5154886;27;20625;-77
2021/06/19 10:19:07;;;;;;;13.07;4.07;;;;;;;29.06;55.43;93779.78;5154756;27;20219;-77
2021/06/19 10:21:34;;;;;;;17.63;4.07;;;;;;;28.92;53.52;93763.81;5154548;27;20210;-75
2021/06/19 10:24:01;;;;;;;22.30;4.80;;;;;;;29.09;58.12;93752.25;5154488;27;20282;-77
2021/06/19 10:26:28;;;;;;;19.33;4.85;;;;;;;29.27;56.55;93745.78;5153327;27;20432;-77
2021/06/19 10:28:59;;;;;;;16.50;4.72;;;;;;;29.04;55.25;93745.16;5154436;27;20199;-77
2021/06/19 10:31:28;;;;;;;16.63;4.32;;;;;;;28.75;56.30;93740.41;5154540;27;20227;-75
2021/06/19 10:33:54;;;;;;;22.10;4.40;;;;;;;28.59;56.09;93740.91;5154419;27;20196;-76
2021/06/19 10:36:38;;;;;;;19.73;5.38;;;;;;;28.93;59.01;93743.91;5154452;27;20207;-77
2021/06/19 10:39:05;;;;;;;25.73;4.90;;;;;;;28.82;57.22;93742.63;5154638;27;20211;-78
2021/06/19 10:41:46;;;;;;;17.75;4.88;;;;;;;28.95;54.96;93742.47;5154503;27;20199;-77
2021/06/19 10:44:13;;;;;;;17.77;3.95;;;;;;;28.72;56.00;93738.38;5154446;27;20288;-77
2021/06/19 10:46:42;;;;;;;17.90;5.07;;;;;;;28.95;57.15;93739.00;5154530;27;20195;-76
2021/06/19 10:49:37;;;;;;;26.02;10.50;;;;;;;29.03;57.36;93732.00;5151400;27;20197;-79
2021/06/19 10:52:40;;;;;;;19.65;4.68;;;;;;;28.91;53.63;93729.97;5133621;27;20212;-76
2021/06/19 10:55:35;;;;;;;20.05;4.20;;;;;;;28.74;58.64;93742.31;5134843;27;20200;-77
2021/06/19 10:58:16;;;;;;;16.08;4.57;;;;;;;29.23;56.93;93735.97;5135013;27;20205;-78
2021/06/19 11:00:48;;;;;;;14.02;4.50;;;;;;;29.30;57.59;93712.88;5137788;27;20196;-79
2021/06/19 11:03:17;;;;;;;23.15;5.30;;;;;;;29.10;56.97;93725.06;5137634;27;20204;-76
2021/06/19 11:05:54;;;;;;;15.18;4.85;;;;;;;28.81;55.51;93719.53;5138920;27;20192;-76
2021/06/19 11:08:21;;;;;;;19.02;4.55;;;;;;;29.00;56.48;93730.00;5158122;27;20211;-76
2021/06/19 11:10:55;;;;;;;17.40;4.90;;;;;;;29.02;58.36;93736.63;5158167;27;20224;-75
2021/06/19 11:13:49;;;;;;;13.05;4.40;;;;;;;29.13;54.24;93740.56;5158200;27;20252;-77
2021/06/19 11:16:49;;;;;;;13.07;3.95;;;;;;;28.97;53.60;93742.94;5158112;27;20204;-79
2021/06/19 11:19:37;;;;;;;18.27;5.45;;;;;;;29.17;56.06;93748.81;5157999;27;20210;-78
2021/06/19 11:22:26;;;;;;;16.38;4.20;;;;;;;29.28;52.15;93747.38;5158122;27;20280;-78
2021/06/19 11:25:44;;;;;;;20.02;4.30;;;;;;;30.00;49.58;93734.19;5157756;27;20553;-77
2021/06/19 11:28:12;;;;;;;13.82;3.60;;;;;;;30.42;47.51;93736.22;5093870;28;20195;-77